Mount Olive, West Virginia
Current Conditions -  °F | °C
As of 11:54 PM on Thursday 27 Nov 2014 (Local Time) from KCRW Reporting Station
Light Snow Light Snow  
Wind Chill: 22°   Ceiling: 1500
Heat Index: 30°   Visibility: 2mi
Dew Point: 26°   Wind: 9mph
Humidity: 85%   Direction: 290°WNW
Pressure: 30.33"   Gusts: NA
Location:  38.23°N, 81.23°W
Report Text: KCRW 280454Z 29008KT 2SM -SN BR SCT008 BKN015 OVC022 M01/M03 A3033 RMK AO2 SLP278 P0000 T10111033 400221011
Loading
Personal Weather Stations






























Interactive Weather Map New forecast layout! Learn more

10-Day Weather Forecast

Advertisements
Track Severe Weather on mobile